createdAt,value
2022-10-21T00:00:01.031Z,12.77
2022-10-21T00:02:34.283Z,13.60
2022-10-21T00:05:02.968Z,15.53
2022-10-21T00:07:32.095Z,14.67
2022-10-21T00:10:00.718Z,12.77
2022-10-21T00:12:40.734Z,12.73
2022-10-21T00:15:11.276Z,16.40
2022-10-21T00:17:42.098Z,11.30
2022-10-21T00:20:14.961Z,14.17
2022-10-21T00:22:43.858Z,11.07
2022-10-21T00:25:15.719Z,12.50
2022-10-21T00:27:45.841Z,12.00
2022-10-21T00:30:14.948Z,13.70
2022-10-21T00:32:44.221Z,13.37
2022-10-21T00:35:12.963Z,11.93
2022-10-21T00:37:41.713Z,11.70
2022-10-21T00:40:11.714Z,10.33
2022-10-21T00:42:46.693Z,12.47
2022-10-21T00:45:24.196Z,13.30
2022-10-21T00:47:57.005Z,11.67
2022-10-21T00:50:31.947Z,9.63
2022-10-21T00:53:03.093Z,14.03
2022-10-21T00:55:35.942Z,10.50
2022-10-21T00:58:05.697Z,11.70
2022-10-21T01:00:37.186Z,12.93
2022-10-21T01:03:06.340Z,14.30
2022-10-21T01:05:37.544Z,12.00
2022-10-21T01:08:06.918Z,11.37
2022-10-21T01:10:38.702Z,12.03
2022-10-21T01:13:17.962Z,10.20
2022-10-21T01:15:57.009Z,9.03
2022-10-21T01:18:32.881Z,12.00
2022-10-21T01:21:24.354Z,12.60
2022-10-21T01:24:18.951Z,10.70
2022-10-21T01:27:17.411Z,12.50
2022-10-21T01:30:15.508Z,12.50
2022-10-21T01:35:46.898Z,10.93
2022-10-21T01:38:28.048Z,9.37
2022-10-21T01:41:00.406Z,8.23
2022-10-21T01:43:37.427Z,10.60
2022-10-21T01:46:12.388Z,12.30
2022-10-21T01:48:48.835Z,8.53
2022-10-21T01:51:22.016Z,12.67
2022-10-21T01:53:53.964Z,14.43
2022-10-21T01:56:23.803Z,11.83
2022-10-21T01:58:55.943Z,12.63
2022-10-21T02:01:25.807Z,13.03
2022-10-21T02:03:58.676Z,10.60
2022-10-21T02:06:27.067Z,13.73
2022-10-21T02:08:55.489Z,9.97
2022-10-21T02:11:24.769Z,11.80
2022-10-21T02:13:58.192Z,13.53
2022-10-21T02:16:30.257Z,11.00
2022-10-21T02:19:01.402Z,10.47
2022-10-21T02:21:33.833Z,10.67
2022-10-21T02:24:09.041Z,11.97
2022-10-21T02:26:37.543Z,13.03
2022-10-21T02:29:06.059Z,13.83
2022-10-21T02:31:46.097Z,10.07
2022-10-21T02:34:27.485Z,12.97
2022-10-21T02:36:59.837Z,9.80
2022-10-21T02:39:33.426Z,13.00
2022-10-21T02:42:05.258Z,9.77
2022-10-21T02:44:34.415Z,10.27
2022-10-21T02:47:05.075Z,10.03
2022-10-21T02:49:35.027Z,10.50
2022-10-21T02:52:03.544Z,10.97
2022-10-21T02:54:31.954Z,12.50
2022-10-21T02:57:00.390Z,8.73
2022-10-21T02:59:28.900Z,11.73
2022-10-21T03:01:57.396Z,12.83
2022-10-21T03:04:26.456Z,12.73
2022-10-21T03:06:56.389Z,10.83
2022-10-21T03:09:24.873Z,10.77
2022-10-21T03:11:53.598Z,11.07
2022-10-21T03:14:22.065Z,10.53
2022-10-21T03:16:50.796Z,13.27
2022-10-21T03:19:19.381Z,11.77
2022-10-21T03:21:47.887Z,13.60
2022-10-21T03:24:28.095Z,11.53
2022-10-21T03:26:57.730Z,14.57
2022-10-21T03:29:26.387Z,12.43
2022-10-21T03:31:55.002Z,9.17
2022-10-21T03:34:23.466Z,12.33
2022-10-21T03:36:51.946Z,13.07
2022-10-21T03:39:21.971Z,13.10
2022-10-21T03:41:50.643Z,12.77
2022-10-21T03:44:19.060Z,11.07
2022-10-21T03:46:47.474Z,10.37
2022-10-21T03:49:21.179Z,11.37
2022-10-21T03:51:50.409Z,9.43
2022-10-21T03:54:19.535Z,10.77
2022-10-21T03:56:49.379Z,10.93
2022-10-21T03:59:17.840Z,10.80
2022-10-21T04:01:46.547Z,11.23
2022-10-21T04:04:14.973Z,10.67
2022-10-21T04:06:43.355Z,6.30
2022-10-21T04:09:12.269Z,14.40
2022-10-21T04:11:40.714Z,9.03
2022-10-21T04:14:13.105Z,9.93
2022-10-21T04:16:44.223Z,11.83
2022-10-21T04:19:18.251Z,10.63
2022-10-21T04:21:47.035Z,14.57
2022-10-21T04:24:15.477Z,18.17
2022-10-21T04:26:44.670Z,13.63
2022-10-21T04:29:14.692Z,11.80
2022-10-21T04:31:43.245Z,10.13
2022-10-21T04:34:13.797Z,14.30
2022-10-21T04:36:42.217Z,11.43
2022-10-21T04:39:10.687Z,13.20
2022-10-21T04:41:39.138Z,11.93
2022-10-21T04:44:07.637Z,12.90
2022-10-21T04:46:37.458Z,12.97
2022-10-21T04:49:05.913Z,9.63
2022-10-21T04:51:34.705Z,12.17
2022-10-21T04:54:03.092Z,14.20
2022-10-21T04:56:31.539Z,16.37
2022-10-21T04:58:59.997Z,12.90
2022-10-21T05:01:28.415Z,12.50
2022-10-21T05:03:58.128Z,17.47
2022-10-21T05:06:26.740Z,12.27
2022-10-21T05:08:56.781Z,17.23
2022-10-21T05:11:26.172Z,17.57
2022-10-21T05:13:54.935Z,16.47
2022-10-21T05:16:23.935Z,14.33
2022-10-21T05:18:52.396Z,20.43
2022-10-21T05:21:22.296Z,15.13
2022-10-21T05:23:50.592Z,13.77
2022-10-21T05:26:18.846Z,15.63
2022-10-21T05:28:47.454Z,18.40
2022-10-21T05:31:15.733Z,17.03
2022-10-21T05:33:44.242Z,15.30
2022-10-21T05:36:12.542Z,17.17
2022-10-21T05:38:42.208Z,17.77
2022-10-21T05:41:11.001Z,13.73
2022-10-21T05:43:39.678Z,14.67
2022-10-21T05:47:12.668Z,14.43
2022-10-21T05:49:47.301Z,16.97
2022-10-21T05:52:31.404Z,15.57
2022-10-21T05:55:15.202Z,15.10
2022-10-21T05:57:45.238Z,14.53
2022-10-21T06:01:15.713Z,19.67
2022-10-21T06:03:49.077Z,15.97
2022-10-21T06:06:18.121Z,20.37
2022-10-21T06:09:11.283Z,17.57
2022-10-21T06:12:12.414Z,18.10
2022-10-21T06:14:58.670Z,15.70
2022-10-21T06:17:39.719Z,18.53
2022-10-21T06:20:23.212Z,19.37
2022-10-21T06:22:56.675Z,18.97
2022-10-21T06:25:28.117Z,17.30
2022-10-21T06:28:05.587Z,16.13
2022-10-21T06:30:40.286Z,18.83
2022-10-21T06:33:16.127Z,19.00
2022-10-21T06:35:45.884Z,19.97
2022-10-21T06:38:16.633Z,19.57
2022-10-21T06:40:55.174Z,18.10
2022-10-21T06:43:43.733Z,24.00
2022-10-21T06:46:14.819Z,19.03
2022-10-21T06:48:43.889Z,15.77
2022-10-21T06:51:15.094Z,19.10
2022-10-21T06:53:44.153Z,20.10
2022-10-21T06:56:16.601Z,23.80
2022-10-21T06:58:49.143Z,26.10
2022-10-21T07:05:24.615Z,16.50
2022-10-21T07:07:53.131Z,20.10
2022-10-21T07:10:21.728Z,24.37
2022-10-21T07:12:50.476Z,20.80
2022-10-21T07:15:20.399Z,17.57
2022-10-21T07:17:48.907Z,20.20
2022-10-21T07:20:17.545Z,25.13
2022-10-21T07:22:46.010Z,20.73
2022-10-21T07:25:14.584Z,21.23
2022-10-21T07:27:45.991Z,23.40
2022-10-21T07:30:16.865Z,23.07
2022-10-21T07:32:46.719Z,19.57
2022-10-21T07:35:15.272Z,23.97
2022-10-21T07:37:43.749Z,24.23
2022-10-21T07:40:12.860Z,21.90
2022-10-21T07:42:41.389Z,25.90
2022-10-21T07:45:10.382Z,22.93
2022-10-21T07:47:39.141Z,22.63
2022-10-21T07:50:09.890Z,23.17
2022-10-21T07:52:51.797Z,23.97
2022-10-21T07:55:30.381Z,28.97
2022-10-21T07:58:00.434Z,22.37
2022-10-21T08:01:51.009Z,26.30
2022-10-21T08:04:21.920Z,25.97
2022-10-21T08:06:52.177Z,24.83
2022-10-21T08:09:21.360Z,24.97
2022-10-21T08:11:51.065Z,21.50
2022-10-21T08:14:19.833Z,24.50
2022-10-21T08:16:54.345Z,23.03
2022-10-21T08:19:43.697Z,24.93
2022-10-21T08:22:25.188Z,21.60
2022-10-21T08:24:59.013Z,21.93
2022-10-21T08:27:27.878Z,23.37
2022-10-21T08:29:56.644Z,27.73
2022-10-21T08:32:25.178Z,23.53
2022-10-21T08:34:53.870Z,18.10
2022-10-21T08:37:25.852Z,25.07
2022-10-21T08:39:54.711Z,20.13
2022-10-21T08:42:26.487Z,24.90
2022-10-21T08:45:00.638Z,19.37
2022-10-21T08:47:37.415Z,21.93
2022-10-21T08:50:13.127Z,21.93
2022-10-21T08:55:36.021Z,20.40
2022-10-21T08:58:15.433Z,20.97
2022-10-21T09:01:55.425Z,22.87
2022-10-21T09:04:35.882Z,21.67
2022-10-21T09:07:11.546Z,23.80
2022-10-21T09:09:47.145Z,23.50
2022-10-21T09:12:23.612Z,19.53
2022-10-21T09:15:11.298Z,18.43
2022-10-21T09:18:01.576Z,19.47
2022-10-21T09:20:48.665Z,17.80
2022-10-21T09:23:38.337Z,19.07
2022-10-21T09:26:18.580Z,15.33
2022-10-21T09:28:48.847Z,17.27
2022-10-21T09:31:20.744Z,20.63
2022-10-21T09:33:54.584Z,19.00
2022-10-21T09:36:28.079Z,17.53
2022-10-21T09:38:59.548Z,18.77
2022-10-21T09:41:34.064Z,14.83
2022-10-21T09:44:02.627Z,20.17
2022-10-21T09:46:31.133Z,16.07
2022-10-21T09:49:36.368Z,21.03
2022-10-21T09:51:48.574Z,16.00
2022-10-21T09:54:21.747Z,19.03
2022-10-21T09:56:57.190Z,18.30
2022-10-21T10:00:43.582Z,19.30
2022-10-21T10:03:12.087Z,19.80
2022-10-21T10:05:44.228Z,16.23
2022-10-21T10:08:30.176Z,19.70
2022-10-21T10:11:14.956Z,15.60
2022-10-21T10:13:47.372Z,16.23
2022-10-21T10:16:19.586Z,17.17
2022-10-21T10:18:48.023Z,16.33
2022-10-21T10:21:17.699Z,18.10
2022-10-21T10:23:48.351Z,17.90
2022-10-21T10:26:24.911Z,15.97
2022-10-21T10:28:57.692Z,15.20
2022-10-21T10:31:29.565Z,16.43
2022-10-21T10:34:00.691Z,17.23
2022-10-21T10:36:32.826Z,15.90
2022-10-21T10:39:03.419Z,15.63
2022-10-21T10:41:37.318Z,12.73
2022-10-21T10:44:13.808Z,12.77
2022-10-21T10:46:43.642Z,14.50
2022-10-21T10:49:22.606Z,16.77
2022-10-21T10:52:07.025Z,15.97
2022-10-21T10:54:35.529Z,12.00
2022-10-21T10:57:11.776Z,13.73
2022-10-21T11:03:57.319Z,16.13
2022-10-21T11:06:36.978Z,12.73
2022-10-21T11:09:09.206Z,16.20
2022-10-21T11:11:42.586Z,12.60
2022-10-21T11:14:20.365Z,16.37
2022-10-21T11:17:20.634Z,11.53
2022-10-21T11:20:22.434Z,13.50
2022-10-21T11:23:14.423Z,13.93
2022-10-21T11:25:51.225Z,14.13
2022-10-21T11:28:29.620Z,11.97
2022-10-21T11:31:43.755Z,14.20
2022-10-21T11:34:35.704Z,13.20
2022-10-21T11:37:21.989Z,13.30
2022-10-21T11:40:00.500Z,14.93
2022-10-21T11:42:39.760Z,17.10
2022-10-21T11:45:28.718Z,16.67
2022-10-21T11:48:04.353Z,16.40
2022-10-21T11:50:40.516Z,12.00
2022-10-21T11:53:27.894Z,12.83
2022-10-21T11:56:14.446Z,14.83
2022-10-21T11:58:56.193Z,15.33
2022-10-21T12:02:42.230Z,12.83
2022-10-21T12:05:25.125Z,15.37
2022-10-21T12:08:09.969Z,13.13
2022-10-21T12:10:45.507Z,14.23
2022-10-21T12:13:19.581Z,12.80
2022-10-21T12:15:51.943Z,13.73
2022-10-21T12:18:23.059Z,14.83
2022-10-21T12:20:54.273Z,14.90
2022-10-21T12:23:25.878Z,12.50
2022-10-21T12:26:10.929Z,14.53
2022-10-21T12:28:44.055Z,13.87
2022-10-21T12:31:29.365Z,10.90
2022-10-21T12:33:59.082Z,16.50
2022-10-21T12:36:42.667Z,12.90
2022-10-21T12:39:16.977Z,14.93
2022-10-21T12:41:48.435Z,12.37
2022-10-21T12:44:26.641Z,14.00
2022-10-21T12:46:57.814Z,11.13
2022-10-21T12:49:32.823Z,14.43
2022-10-21T12:52:09.575Z,12.13
2022-10-21T12:54:52.308Z,11.33
2022-10-21T12:57:28.788Z,11.83
2022-10-21T13:04:07.163Z,13.50
2022-10-21T13:06:54.062Z,11.10
2022-10-21T13:09:37.354Z,15.43
2022-10-21T13:12:18.318Z,11.97
2022-10-21T13:14:49.873Z,12.17
2022-10-21T13:17:30.246Z,10.30
2022-10-21T13:20:39.701Z,11.60
2022-10-21T13:23:48.286Z,11.37
2022-10-21T13:26:26.013Z,12.63
2022-10-21T13:29:00.879Z,12.47
2022-10-21T13:31:32.527Z,13.77
2022-10-21T13:34:01.896Z,11.27
2022-10-21T13:36:39.917Z,15.30
2022-10-21T13:39:26.755Z,11.50
2022-10-21T13:42:02.194Z,12.87
2022-10-21T13:44:35.188Z,10.70
2022-10-21T13:47:29.127Z,11.63
2022-10-21T13:50:03.101Z,11.00
2022-10-21T13:52:32.313Z,9.90
2022-10-21T13:55:02.077Z,14.20
2022-10-21T13:57:31.883Z,10.10
2022-10-21T14:00:59.108Z,12.37
2022-10-21T14:03:29.401Z,12.40
2022-10-21T14:06:00.588Z,12.17
2022-10-21T14:08:33.337Z,10.27
2022-10-21T14:11:04.340Z,13.10
2022-10-21T14:13:37.581Z,11.77
2022-10-21T14:16:08.267Z,12.47
2022-10-21T14:18:43.865Z,10.17
2022-10-21T14:21:19.029Z,12.03
2022-10-21T14:24:02.484Z,11.70
2022-10-21T14:26:33.058Z,12.27
2022-10-21T14:29:02.978Z,10.57
2022-10-21T14:31:32.339Z,10.63
2022-10-21T14:34:02.558Z,9.93
2022-10-21T14:36:34.280Z,10.23
2022-10-21T14:39:06.959Z,9.90
2022-10-21T14:41:38.195Z,9.53
2022-10-21T14:44:30.223Z,11.67
2022-10-21T14:47:00.442Z,9.23
2022-10-21T14:49:33.383Z,9.73
2022-10-21T14:52:03.986Z,9.70
2022-10-21T14:54:42.003Z,10.07
2022-10-21T14:57:26.872Z,11.37
2022-10-21T15:04:03.644Z,10.83
2022-10-21T15:06:40.153Z,10.03
2022-10-21T15:09:19.963Z,12.50
2022-10-21T15:12:17.367Z,11.00
2022-10-21T15:14:46.281Z,9.23
2022-10-21T15:17:17.696Z,12.30
2022-10-21T15:19:48.503Z,11.57
2022-10-21T15:22:30.936Z,12.40
2022-10-21T15:25:06.084Z,13.53
2022-10-21T15:27:42.668Z,9.43
2022-10-21T15:30:18.874Z,12.40
2022-10-21T15:32:47.671Z,11.43
2022-10-21T15:35:17.644Z,12.20
2022-10-21T15:37:50.980Z,13.23
2022-10-21T15:40:20.612Z,13.50
2022-10-21T15:42:49.913Z,12.87
2022-10-21T15:45:20.077Z,11.67
2022-10-21T15:47:52.494Z,13.20
2022-10-21T15:50:23.098Z,11.40
2022-10-21T15:52:53.379Z,12.60
2022-10-21T15:55:22.395Z,11.47
2022-10-21T15:57:51.184Z,15.50
2022-10-21T16:00:21.852Z,12.20
2022-10-21T16:02:52.619Z,12.93
2022-10-21T16:05:22.188Z,14.33
2022-10-21T16:07:54.108Z,12.73
2022-10-21T16:10:27.844Z,12.83
2022-10-21T16:12:58.255Z,10.97
2022-10-21T16:15:27.437Z,12.00
2022-10-21T16:17:58.482Z,13.43
2022-10-21T16:20:29.249Z,11.13
2022-10-21T16:23:03.111Z,14.60
2022-10-21T16:25:32.307Z,12.27
2022-10-21T16:28:00.911Z,11.80
2022-10-21T16:30:33.708Z,10.63
2022-10-21T16:33:02.519Z,12.13
2022-10-21T16:35:31.600Z,10.57
2022-10-21T16:38:01.620Z,13.93
2022-10-21T16:40:33.803Z,11.10
2022-10-21T16:43:02.450Z,12.67
2022-10-21T16:45:33.547Z,12.87
2022-10-21T16:48:05.353Z,14.23
2022-10-21T16:50:39.850Z,13.07
2022-10-21T16:53:15.258Z,10.93
2022-10-21T16:56:04.133Z,10.80
2022-10-21T16:58:32.734Z,9.83
2022-10-21T17:02:20.439Z,14.87
2022-10-21T17:04:49.397Z,14.07
2022-10-21T17:07:18.672Z,15.13
2022-10-21T17:09:49.157Z,14.33
2022-10-21T17:12:17.964Z,11.53
2022-10-21T17:14:50.372Z,13.30
2022-10-21T17:17:25.358Z,15.47
2022-10-21T17:19:57.390Z,14.97
2022-10-21T17:22:49.202Z,13.80
2022-10-21T17:25:47.169Z,12.10
2022-10-21T17:28:26.280Z,13.33
2022-10-21T20:00:56.092Z,14.67
2022-10-21T20:03:28.694Z,18.50
2022-10-21T20:05:58.228Z,12.90
2022-10-21T20:08:28.032Z,13.80
2022-10-21T20:11:01.455Z,15.57
2022-10-21T20:13:30.998Z,18.07
2022-10-21T20:16:00.188Z,13.57
2022-10-21T20:18:32.705Z,19.20
2022-10-21T20:21:01.401Z,13.83
2022-10-21T20:23:30.300Z,16.43
2022-10-21T20:26:00.615Z,19.97
2022-10-21T20:28:32.764Z,18.60
2022-10-21T20:31:03.437Z,16.63
2022-10-21T20:33:36.743Z,16.30
2022-10-21T20:36:07.784Z,13.60
2022-10-21T20:38:36.420Z,20.23
2022-10-21T20:41:07.687Z,20.23
2022-10-21T20:43:56.799Z,20.30
2022-10-21T20:46:27.346Z,21.30
2022-10-21T20:48:57.505Z,22.57
2022-10-21T20:51:29.616Z,16.80
2022-10-21T20:54:00.119Z,21.53
2022-10-21T20:56:31.340Z,22.63
2022-10-21T20:59:00.498Z,19.50
2022-10-21T21:02:16.448Z,16.37
2022-10-21T21:04:46.708Z,16.23
2022-10-21T21:07:15.802Z,18.60
2022-10-21T21:10:01.636Z,20.93
2022-10-21T21:12:33.009Z,22.77
2022-10-21T21:15:16.636Z,19.40
2022-10-21T21:17:48.567Z,20.37
2022-10-21T21:20:19.250Z,23.73
2022-10-21T21:22:48.137Z,19.40
2022-10-21T21:32:51.151Z,22.33
2022-10-21T21:35:25.096Z,18.97
2022-10-21T21:37:57.221Z,21.83
2022-10-21T21:40:26.380Z,17.23
2022-10-21T21:42:55.130Z,20.83
2022-10-21T21:45:24.592Z,18.43
2022-10-21T21:47:53.216Z,19.17
2022-10-21T21:50:24.548Z,15.20
2022-10-21T21:52:55.818Z,21.80
2022-10-21T21:55:27.700Z,20.83
2022-10-21T21:57:56.574Z,18.67
2022-10-21T22:00:25.247Z,17.87
2022-10-21T22:02:53.709Z,13.57
2022-10-21T22:05:27.024Z,19.07
2022-10-21T22:07:55.759Z,17.77
2022-10-21T22:10:27.030Z,18.53
2022-10-21T22:12:56.946Z,20.27
2022-10-21T22:18:14.767Z,20.10
2022-10-21T22:20:44.685Z,17.93
2022-10-21T22:23:13.341Z,15.80
2022-10-21T22:25:41.924Z,15.17
2022-10-21T22:28:10.448Z,21.10
2022-10-21T22:30:38.984Z,17.37
2022-10-21T22:33:07.573Z,15.93
2022-10-21T22:35:36.130Z,20.50
2022-10-21T22:38:06.206Z,22.80
2022-10-21T22:40:35.255Z,22.60
2022-10-21T22:43:03.843Z,20.17
2022-10-21T22:45:32.885Z,19.47
2022-10-21T22:48:01.815Z,16.97
2022-10-21T22:50:30.542Z,20.90
2022-10-21T22:52:59.087Z,14.33
2022-10-21T22:55:29.131Z,17.47
2022-10-21T22:57:57.718Z,17.33
2022-10-21T23:00:26.285Z,22.43
2022-10-21T23:02:54.849Z,23.73
2022-10-21T23:05:24.047Z,21.67
2022-10-21T23:07:52.657Z,16.30
2022-10-21T23:10:21.191Z,19.37
2022-10-21T23:12:51.202Z,27.37
2022-10-21T23:15:19.940Z,24.53
2022-10-21T23:17:48.337Z,19.70
2022-10-21T23:20:16.947Z,19.70
2022-10-21T23:22:45.417Z,18.40
2022-10-21T23:25:13.929Z,16.97
2022-10-21T23:27:42.513Z,21.03
2022-10-21T23:30:13.866Z,20.57
2022-10-21T23:32:43.063Z,18.70
2022-10-21T23:35:11.913Z,16.90
2022-10-21T23:37:40.723Z,17.03
2022-10-21T23:40:10.803Z,20.47
2022-10-21T23:42:42.739Z,19.77
2022-10-21T23:45:13.374Z,20.60
2022-10-21T23:47:42.173Z,15.77
2022-10-21T23:50:11.359Z,15.70
2022-10-21T23:52:39.940Z,20.70
2022-10-21T23:55:09.643Z,18.23
2022-10-21T23:57:38.235Z,16.87
